Time;durP1;ratioP1;P1;durP2;ratioP2;P2;SDS_P1;SDS_P2;PMS_P1;PMS_P2;Temp;Humidity;BMP_temperature;BMP_pressure;BME280_temperature;BME280_humidity;BME280_pressure;Samples;Min_cycle;Max_cycle;Signal;HPM_P1;HPM_P2
2023/05/27 00:01:50;;;;;;;30.93;7.37;;;;;;;10.24;90.80;103033.94;5040641;28;20366;-71
2023/05/27 00:04:15;;;;;;;29.67;6.43;;;;;;;10.22;91.46;103026.84;5041160;28;20029;-72
2023/05/27 00:06:41;;;;;;;30.08;6.40;;;;;;;10.22;90.76;103029.59;5039028;28;20512;-72
2023/05/27 00:09:06;;;;;;;37.05;7.45;;;;;;;10.20;91.33;103023.41;5034963;28;20037;-72
2023/05/27 00:11:32;;;;;;;32.03;6.03;;;;;;;10.17;91.42;103032.78;5027295;28;20477;-72
2023/05/27 00:13:57;;;;;;;29.20;6.83;;;;;;;10.13;91.05;103028.56;5039072;28;20052;-72
2023/05/27 00:16:23;;;;;;;30.83;5.80;;;;;;;10.13;91.61;103027.69;5072397;28;20020;-73
2023/05/27 00:18:49;;;;;;;27.63;6.25;;;;;;;10.05;91.18;103024.81;5039752;28;20064;-72
2023/05/27 00:21:15;;;;;;;25.80;5.97;;;;;;;10.05;91.91;103016.59;5038952;28;20041;-73
2023/05/27 00:23:46;;;;;;;27.45;6.25;;;;;;;9.99;92.45;103017.13;5042661;28;20079;-73
2023/05/27 00:26:11;;;;;;;34.30;5.88;;;;;;;9.98;91.84;103008.03;5039184;28;20440;-72
2023/05/27 00:28:37;;;;;;;30.53;6.50;;;;;;;9.95;91.72;103019.28;5036830;28;20057;-73
2023/05/27 00:31:02;;;;;;;23.27;5.97;;;;;;;9.88;91.54;103009.03;5040625;28;20026;-73
2023/05/27 00:33:28;;;;;;;25.35;6.05;;;;;;;9.91;91.19;103006.88;5036699;28;20049;-73
2023/05/27 00:35:53;;;;;;;28.97;6.40;;;;;;;9.92;91.07;103003.13;5042142;28;20033;-74
2023/05/27 00:38:19;;;;;;;30.70;6.10;;;;;;;9.87;91.46;103004.56;5039912;28;20389;-72
2023/05/27 00:40:44;;;;;;;27.08;6.90;;;;;;;9.87;91.48;103005.41;5038164;28;20563;-73
2023/05/27 00:43:10;;;;;;;30.00;6.32;;;;;;;9.74;92.02;102993.00;5036236;28;20489;-72
2023/05/27 00:45:37;;;;;;;22.35;5.32;;;;;;;9.77;90.91;103000.94;5041676;28;20520;-72
2023/05/27 00:48:04;;;;;;;28.50;6.40;;;;;;;9.75;91.53;102997.47;5039436;28;20733;-73
2023/05/27 00:50:29;;;;;;;;;;;;;;;9.74;91.38;103001.19;5037830;28;20075;-73
2023/05/27 00:52:55;;;;;;;26.85;7.18;;;;;;;9.73;90.92;102996.75;5037175;28;19942;-72
2023/05/27 00:55:22;;;;;;;19.37;6.47;;;;;;;9.64;91.94;102992.09;5034098;28;20527;-72
2023/05/27 00:57:47;;;;;;;18.67;5.75;;;;;;;9.67;91.77;102991.81;5066755;28;20022;-72
2023/05/27 01:00:13;;;;;;;20.77;5.80;;;;;;;9.61;91.35;102993.22;5035595;28;20076;-72
2023/05/27 01:02:42;;;;;;;20.37;4.80;;;;;;;9.56;91.37;102991.94;5034872;28;20550;-73
2023/05/27 01:05:14;;;;;;;29.23;7.50;;;;;;;9.61;91.40;102987.75;5033880;28;20033;-72
2023/05/27 01:07:54;;;;;;;21.88;5.97;;;;;;;9.54;91.62;102982.97;5042160;28;20055;-72
2023/05/27 01:10:31;;;;;;;25.08;5.60;;;;;;;9.54;91.63;102981.13;5035345;28;20753;-72
2023/05/27 01:13:06;;;;;;;24.98;5.75;;;;;;;9.57;91.21;102977.25;5036576;28;20063;-72
2023/05/27 01:15:33;;;;;;;20.40;6.15;;;;;;;9.46;91.68;102989.13;5037049;28;20128;-72
2023/05/27 01:18:02;;;;;;;23.77;5.63;;;;;;;9.49;91.71;102993.47;5039161;28;20037;-73
2023/05/27 01:20:29;;;;;;;23.23;5.18;;;;;;;9.37;91.89;102989.09;5039296;28;20029;-73
2023/05/27 01:22:57;;;;;;;32.47;6.45;;;;;;;9.34;92.54;102984.78;5038321;28;20055;-72
2023/05/27 01:25:23;;;;;;;26.33;5.40;;;;;;;9.35;92.35;102985.66;5034837;28;20025;-73
2023/05/27 01:27:50;;;;;;;25.52;6.03;;;;;;;9.29;92.76;102984.31;5035172;28;20028;-73
2023/05/27 01:30:16;;;;;;;34.72;6.75;;;;;;;9.28;92.53;102985.31;5035468;28;20033;-72
2023/05/27 01:33:01;;;;;;;23.43;6.30;;;;;;;9.29;92.27;102988.94;5037730;28;20025;-73
2023/05/27 01:35:37;;;;;;;22.85;5.28;;;;;;;9.24;92.81;102993.94;5040412;28;20493;-72
2023/05/27 01:38:07;;;;;;;24.07;5.60;;;;;;;9.20;93.61;102987.91;5035731;28;20033;-72
2023/05/27 01:40:34;;;;;;;23.92;5.47;;;;;;;9.18;92.91;102991.75;5043773;28;20293;-73
2023/05/27 01:42:59;;;;;;;;;;;;;;;9.10;93.90;102986.09;5040782;28;20674;-73
2023/05/27 01:45:25;;;;;;;20.13;4.63;;;;;;;9.08;93.64;102986.22;5038203;28;19913;-72
2023/05/27 01:47:51;;;;;;;19.70;5.68;;;;;;;9.13;93.31;102983.09;5040672;28;20041;-72
2023/05/27 01:50:17;;;;;;;28.60;5.87;;;;;;;9.04;93.81;102981.16;5037072;28;20037;-73
2023/05/27 01:52:42;;;;;;;22.02;5.22;;;;;;;9.06;93.58;102980.03;5037266;28;20071;-73
2023/05/27 01:55:08;;;;;;;27.58;5.47;;;;;;;9.01;94.16;102992.34;5039801;28;20056;-73
2023/05/27 01:57:33;;;;;;;17.85;5.45;;;;;;;8.99;93.91;102967.03;5041197;28;20472;-73
2023/05/27 01:59:59;;;;;;;18.20;4.95;;;;;;;9.01;93.73;102990.50;5035068;28;20032;-71
2023/05/27 02:02:25;;;;;;;19.05;5.30;;;;;;;8.97;94.34;102985.44;5038237;28;20373;-71
2023/05/27 02:04:50;;;;;;;22.13;5.90;;;;;;;8.90;95.32;102981.50;5042031;28;20441;-72
2023/05/27 02:07:19;;;;;;;25.08;6.05;;;;;;;8.89;95.18;102974.31;5040267;28;20033;-71
2023/05/27 02:09:44;;;;;;;22.63;5.85;;;;;;;8.88;95.19;102981.66;5041702;28;20016;-71
2023/05/27 02:12:10;;;;;;;22.95;4.82;;;;;;;8.87;95.09;102981.78;5037590;28;20041;-70
2023/05/27 02:14:38;;;;;;;29.52;6.15;;;;;;;8.94;94.83;102988.44;5039460;28;20034;-70
2023/05/27 02:17:07;;;;;;;32.65;5.05;;;;;;;8.90;94.60;102997.91;5043942;28;20065;-71
2023/05/27 02:19:33;;;;;;;33.05;6.15;;;;;;;8.85;95.37;102989.22;5040635;28;20029;-71
2023/05/27 02:21:58;;;;;;;23.35;5.15;;;;;;;8.86;95.21;102996.47;5039836;28;20036;-72
2023/05/27 02:24:24;;;;;;;26.33;5.60;;;;;;;8.81;95.30;102985.91;5043146;28;20107;-71
2023/05/27 02:26:49;;;;;;;26.42;5.50;;;;;;;8.80;95.61;102988.81;5038776;28;20086;-71
2023/05/27 02:29:15;;;;;;;21.05;5.25;;;;;;;8.76;95.79;102976.41;5038426;28;20021;-71
2023/05/27 02:31:41;;;;;;;24.77;5.35;;;;;;;8.74;96.36;102983.84;5037576;28;20028;-71
2023/05/27 02:34:06;;;;;;;27.05;6.40;;;;;;;8.71;96.61;102975.94;5039557;28;20029;-72
2023/05/27 02:36:32;;;;;;;20.05;4.40;;;;;;;8.68;96.02;102976.19;5039793;28;20090;-71
2023/05/27 02:38:57;;;;;;;26.88;5.28;;;;;;;8.67;96.33;102978.06;5041359;28;20032;-71
2023/05/27 02:41:23;;;;;;;21.80;5.20;;;;;;;8.63;96.21;102983.91;5042650;28;20131;-72
2023/05/27 02:43:48;;;;;;;22.93;6.03;;;;;;;8.66;96.21;102978.19;5037578;28;20036;-71
2023/05/27 02:46:14;;;;;;;23.13;5.32;;;;;;;8.60;97.05;102981.47;5038474;28;20464;-71
2023/05/27 02:48:40;;;;;;;25.92;4.68;;;;;;;8.63;96.56;102983.91;5038505;28;20021;-70
2023/05/27 02:51:05;;;;;;;21.92;5.63;;;;;;;8.54;96.52;102977.38;5044845;28;20277;-71
2023/05/27 02:53:31;;;;;;;26.50;5.65;;;;;;;8.56;97.23;102988.19;5038371;28;20115;-71
2023/05/27 02:55:56;;;;;;;16.85;5.43;;;;;;;8.50;97.54;102985.97;5039144;28;20125;-71
2023/05/27 02:58:22;;;;;;;24.38;5.93;;;;;;;8.49;97.36;102979.63;5039042;28;20030;-71
2023/05/27 03:00:47;;;;;;;29.65;6.15;;;;;;;8.49;97.47;102979.63;5041243;28;20024;-70
2023/05/27 03:03:13;;;;;;;19.70;5.93;;;;;;;8.49;97.35;102974.19;5039019;28;20108;-70
2023/05/27 03:05:39;;;;;;;22.85;5.53;;;;;;;8.50;97.84;102985.97;5042521;28;20112;-70
2023/05/27 03:08:05;;;;;;;23.83;5.30;;;;;;;8.49;97.52;102984.25;5037936;28;20017;-70
2023/05/27 03:10:32;;;;;;;18.50;5.82;;;;;;;8.46;97.92;102979.91;5043479;28;20465;-70
2023/05/27 03:12:57;;;;;;;25.17;7.72;;;;;;;8.43;97.71;102980.16;5034454;28;20054;-69
2023/05/27 03:15:23;;;;;;;24.38;6.20;;;;;;;8.40;97.96;102991.38;5035489;28;20367;-70
2023/05/27 03:17:50;;;;;;;29.65;6.05;;;;;;;8.45;98.24;102982.78;5035146;28;20029;-71
2023/05/27 03:20:16;;;;;;;31.80;5.72;;;;;;;8.38;97.84;102981.56;5045518;28;20473;-70
2023/05/27 03:22:42;;;;;;;18.85;4.85;;;;;;;8.42;97.87;102996.66;5039814;28;20029;-70
2023/05/27 03:25:08;;;;;;;26.30;5.00;;;;;;;8.36;98.04;102989.88;5038924;28;20351;-70
2023/05/27 03:27:34;;;;;;;28.33;5.78;;;;;;;8.35;98.45;102984.56;5041850;28;20048;-70
2023/05/27 03:29:59;;;;;;;18.13;5.07;;;;;;;8.29;98.73;102977.75;5038359;28;20029;-70
2023/05/27 03:32:25;;;;;;;15.90;4.47;;;;;;;8.33;98.54;102972.91;5067864;28;20389;-69
2023/05/27 03:34:50;;;;;;;20.83;5.28;;;;;;;8.38;98.74;102968.78;5037719;28;20028;-70
2023/05/27 03:37:16;;;;;;;24.65;6.43;;;;;;;8.28;99.23;102975.16;5035916;28;20436;-69
2023/05/27 03:39:41;;;;;;;27.33;6.80;;;;;;;8.22;99.18;102968.34;5037950;28;20419;-69
2023/05/27 03:42:07;;;;;;;24.52;5.75;;;;;;;8.18;100.00;102969.56;5036416;28;20100;-68
2023/05/27 03:44:33;;;;;;;31.75;5.53;;;;;;;8.20;99.45;102972.19;5040739;28;20029;-69
2023/05/27 03:47:01;;;;;;;29.23;7.05;;;;;;;8.17;99.98;102964.25;5039899;28;20056;-70
2023/05/27 03:49:26;;;;;;;20.88;6.15;;;;;;;8.15;100.00;102967.09;5040765;28;20029;-70
2023/05/27 03:51:53;;;;;;;22.55;5.30;;;;;;;8.15;100.00;102968.97;5038163;28;20173;-69
2023/05/27 03:54:19;;;;;;;19.27;5.65;;;;;;;8.21;100.00;102971.19;5042593;28;20036;-70
2023/05/27 03:56:44;;;;;;;34.53;6.40;;;;;;;8.16;100.00;102963.38;5037215;28;20029;-71
2023/05/27 03:59:11;;;;;;;23.35;5.85;;;;;;;8.20;100.00;102958.53;5040326;28;20080;-74
2023/05/27 04:01:37;;;;;;;;;;;;;;;8.23;100.00;102955.56;5040016;28;20029;-74
2023/05/27 04:04:02;;;;;;;27.73;5.95;;;;;;;8.26;99.84;102963.47;5035999;28;19923;-73
2023/05/27 04:06:28;;;;;;;31.38;6.70;;;;;;;8.21;99.46;102954.81;5033811;28;20131;-73
2023/05/27 04:08:53;;;;;;;32.40;7.00;;;;;;;8.24;100.00;102958.19;5043081;28;20096;-74
2023/05/27 04:11:20;;;;;;;16.73;4.73;;;;;;;8.30;99.47;102960.38;5039917;28;20040;-73
2023/05/27 04:13:46;;;;;;;;;;;;;;;8.23;100.00;102958.31;5038847;28;20056;-72
2023/05/27 04:16:12;;;;;;;24.20;6.05;;;;;;;8.32;99.88;102952.06;5043625;28;19957;-73
2023/05/27 04:18:37;;;;;;;25.60;5.80;;;;;;;8.31;100.00;102950.31;5044101;28;20417;-72
2023/05/27 04:21:04;;;;;;;19.85;5.25;;;;;;;8.38;99.72;102946.91;5040374;28;20029;-73
2023/05/27 04:23:29;;;;;;;21.20;6.25;;;;;;;8.33;99.75;102948.34;5037311;28;20108;-72
2023/05/27 04:25:55;;;;;;;23.15;5.85;;;;;;;8.37;99.90;102947.03;5042909;28;20456;-72
2023/05/27 04:28:21;;;;;;;32.88;5.35;;;;;;;8.41;99.52;102953.97;5041122;28;20025;-72
2023/05/27 04:30:48;;;;;;;18.53;5.70;;;;;;;8.44;99.75;102942.81;5039660;28;20070;-73
2023/05/27 04:33:15;;;;;;;19.13;6.22;;;;;;;8.39;100.00;102951.38;5035432;28;20033;-73
2023/05/27 04:35:43;;;;;;;25.52;6.85;;;;;;;8.47;99.95;102948.88;5040644;28;20104;-72
2023/05/27 04:38:15;;;;;;;26.23;5.43;;;;;;;8.39;100.00;102947.81;5044467;28;20032;-73
2023/05/27 04:40:42;;;;;;;24.80;6.05;;;;;;;8.54;99.88;102946.47;5038444;28;20497;-74
2023/05/27 04:43:07;;;;;;;29.52;6.45;;;;;;;8.61;99.41;102947.69;5038711;28;20089;-75
2023/05/27 04:45:34;;;;;;;23.63;7.03;;;;;;;8.57;99.23;102951.66;5035060;28;20416;-73
2023/05/27 04:48:00;;;;;;;22.95;6.22;;;;;;;8.64;99.65;102950.16;5031765;28;20022;-74
2023/05/27 04:50:26;;;;;;;23.92;6.72;;;;;;;8.65;99.91;102944.53;5040036;28;20051;-73
2023/05/27 04:52:52;;;;;;;20.42;6.95;;;;;;;8.74;99.31;102940.13;5036766;28;20029;-73
2023/05/27 04:55:18;;;;;;;20.58;6.60;;;;;;;8.82;98.45;102943.06;5035910;28;20036;-73
2023/05/27 04:57:43;;;;;;;19.65;5.45;;;;;;;8.85;98.84;102940.94;5035805;28;20485;-74
2023/05/27 05:02:39;;;;;;;24.10;6.00;;;;;;;8.98;97.93;102937.97;5035857;28;20074;-73
2023/05/27 05:05:08;;;;;;;21.92;5.65;;;;;;;9.03;97.20;102941.19;5036302;28;20062;-72
2023/05/27 05:07:37;;;;;;;18.35;5.47;;;;;;;8.97;97.74;102933.53;5032477;28;20025;-73
2023/05/27 05:10:04;;;;;;;20.83;5.55;;;;;;;9.05;97.91;102937.31;5032145;28;20036;-72
2023/05/27 05:12:58;;;;;;;21.45;6.63;;;;;;;9.26;97.04;102934.50;5031916;28;20102;-73
2023/05/27 05:15:31;;;;;;;21.65;5.80;;;;;;;9.69;95.42;102940.56;5068973;28;20436;-73
2023/05/27 05:17:56;;;;;;;26.10;5.70;;;;;;;10.52;91.95;102934.44;5032509;28;20030;-73
2023/05/27 05:20:57;;;;;;;25.80;5.87;;;;;;;11.24;87.31;102941.03;5036681;28;20477;-72
2023/05/27 05:23:29;;;;;;;17.38;5.35;;;;;;;11.67;85.25;102929.44;5031050;28;20047;-73
2023/05/27 05:25:58;;;;;;;21.05;5.68;;;;;;;12.07;84.16;102924.41;5034086;28;20611;-73
2023/05/27 05:28:24;;;;;;;18.98;5.10;;;;;;;12.79;81.11;102922.28;5036375;28;20042;-73
2023/05/27 05:30:50;;;;;;;21.50;5.50;;;;;;;13.10;78.95;102926.31;5037160;28;20499;-73
2023/05/27 05:33:15;;;;;;;13.77;5.03;;;;;;;13.89;77.51;102928.56;5046838;28;20029;-73
2023/05/27 05:35:40;;;;;;;24.70;5.77;;;;;;;14.09;72.58;102926.38;5049555;28;20542;-74
2023/05/27 05:38:07;;;;;;;18.60;4.93;;;;;;;14.31;72.59;102910.03;5043729;28;20065;-72
2023/05/27 05:40:32;;;;;;;17.80;5.38;;;;;;;14.56;71.75;102913.69;5040162;28;20405;-73
2023/05/27 05:42:57;;;;;;;19.53;4.90;;;;;;;14.59;70.03;102922.50;5048550;28;20028;-72
2023/05/27 05:45:23;;;;;;;14.47;4.13;;;;;;;14.95;69.33;102922.97;5042494;28;20074;-72
2023/05/27 05:47:48;;;;;;;19.10;5.37;;;;;;;15.50;67.89;102916.44;5041145;28;20388;-73
2023/05/27 05:50:14;;;;;;;17.30;5.07;;;;;;;15.94;66.80;102913.97;5074344;28;20032;-73
2023/05/27 05:52:39;;;;;;;18.83;5.43;;;;;;;15.70;68.30;102916.88;5042778;28;20029;-72
2023/05/27 05:55:05;;;;;;;19.20;5.63;;;;;;;16.05;63.40;102908.91;5043128;28;20028;-72
2023/05/27 05:57:32;;;;;;;19.75;5.22;;;;;;;16.19;64.85;102912.78;5040365;28;20033;-72
2023/05/27 05:59:57;;;;;;;14.68;4.45;;;;;;;16.20;63.52;102915.38;5048986;28;20113;-72
2023/05/27 06:02:25;;;;;;;19.90;5.10;;;;;;;15.43;64.98;102920.94;5059761;28;20039;-72
2023/05/27 06:04:50;;;;;;;20.48;4.82;;;;;;;15.45;65.65;102909.72;5046683;28;20477;-73
2023/05/27 06:07:16;;;;;;;21.53;5.10;;;;;;;15.09;67.62;102916.72;5040988;28;20044;-72
2023/05/27 06:09:41;;;;;;;19.90;5.33;;;;;;;15.30;66.72;102908.72;5039749;28;20022;-72
2023/05/27 06:12:07;;;;;;;16.63;5.50;;;;;;;15.51;66.71;102901.59;5078377;28;20032;-72
2023/05/27 06:14:32;;;;;;;22.67;5.37;;;;;;;15.42;65.62;102902.66;5044518;28;20034;-72
2023/05/27 06:16:57;;;;;;;32.00;5.77;;;;;;;14.84;nan;102904.84;5036792;28;20481;-72
2023/05/27 06:19:23;;;;;;;19.67;5.47;;;;;;;14.50;69.18;102895.06;5041489;28;20450;-72
2023/05/27 06:21:48;;;;;;;21.43;5.83;;;;;;;14.83;69.32;102899.53;5039799;28;20099;-72
2023/05/27 06:24:14;;;;;;;24.23;5.77;;;;;;;15.51;68.20;102896.06;5038884;28;20500;-72
2023/05/27 06:26:40;;;;;;;24.20;6.00;;;;;;;15.28;66.29;102900.63;5033541;28;20028;-73
2023/05/27 06:29:05;;;;;;;18.20;5.40;;;;;;;15.26;66.76;102891.63;5031585;28;20037;-72
2023/05/27 06:31:32;;;;;;;22.97;5.97;;;;;;;15.63;68.06;102893.78;5034940;28;20516;-72
2023/05/27 06:33:58;;;;;;;17.42;4.90;;;;;;;16.13;63.81;102886.72;5035230;28;20030;-72
2023/05/27 06:36:23;;;;;;;23.97;5.83;;;;;;;16.79;62.86;102884.09;5037153;28;20426;-72
2023/05/27 06:38:50;;;;;;;22.77;6.23;;;;;;;17.19;60.33;102883.66;5033353;28;20037;-69
2023/05/27 06:41:15;;;;;;;;;;;;;;;16.97;61.82;102875.44;5039255;28;20094;-71
2023/05/27 06:43:41;;;;;;;22.25;5.45;;;;;;;17.79;60.60;102875.13;5044400;28;20368;-72
2023/05/27 06:46:07;;;;;;;17.27;4.63;;;;;;;17.99;58.26;102867.91;5037844;28;20508;-71
2023/05/27 06:48:32;;;;;;;18.40;5.83;;;;;;;17.80;59.44;102871.28;5051460;28;20116;-72
2023/05/27 06:50:58;;;;;;;17.07;4.40;;;;;;;17.75;58.45;102882.09;5037030;28;20033;-72
2023/05/27 06:53:24;;;;;;;22.15;5.65;;;;;;;17.98;58.12;102866.19;5057368;28;20423;-72
2023/05/27 06:55:49;;;;;;;22.97;5.57;;;;;;;18.30;58.19;102858.19;5042019;28;20064;-71
2023/05/27 06:58:15;;;;;;;20.03;5.03;;;;;;;18.57;55.99;102857.38;5038585;28;20030;-72
2023/05/27 07:00:40;;;;;;;24.67;5.80;;;;;;;18.63;57.29;102870.47;5033252;28;20496;-72
2023/05/27 07:03:05;;;;;;;15.70;4.97;;;;;;;18.22;57.79;102868.56;5033903;28;20061;-72
2023/05/27 07:05:31;;;;;;;29.23;5.07;;;;;;;17.48;58.17;102864.28;5035173;28;20518;-72
2023/05/27 07:07:56;;;;;;;20.13;5.63;;;;;;;17.22;59.27;102857.47;5040138;28;20020;-72
2023/05/27 07:10:21;;;;;;;16.77;5.53;;;;;;;17.31;58.46;102859.97;5041370;28;20040;-72
2023/05/27 07:12:47;;;;;;;17.97;5.70;;;;;;;18.04;58.45;102845.97;5034090;28;20485;-72
2023/05/27 07:15:12;;;;;;;17.40;5.70;;;;;;;17.53;58.61;102847.06;5039025;28;20052;-73
2023/05/27 07:17:38;;;;;;;26.27;5.97;;;;;;;18.27;58.04;102841.94;5037022;28;20473;-72
2023/05/27 07:20:03;;;;;;;24.17;5.50;;;;;;;17.99;58.04;102827.13;5042563;28;20100;-72
2023/05/27 07:22:29;;;;;;;21.57;5.27;;;;;;;18.52;56.95;102840.47;5041965;28;20033;-73
2023/05/27 07:24:54;;;;;;;20.90;5.43;;;;;;;18.67;57.27;102843.19;5041237;28;20274;-73
2023/05/27 07:27:20;;;;;;;22.03;5.50;;;;;;;17.70;58.32;102841.09;5039249;28;20115;-72
2023/05/27 07:29:45;;;;;;;23.77;5.83;;;;;;;18.13;57.73;102828.13;5036265;28;20025;-72
2023/05/27 07:32:10;;;;;;;21.03;6.57;;;;;;;18.62;58.01;102838.22;5041010;28;20443;-72
2023/05/27 07:34:36;;;;;;;28.83;6.87;;;;;;;18.62;56.63;102834.59;5041497;28;20037;-72
2023/05/27 07:37:01;;;;;;;18.60;5.67;;;;;;;18.50;57.60;102839.84;5035034;28;20021;-72
2023/05/27 07:39:27;;;;;;;28.20;6.50;;;;;;;17.65;57.87;102839.97;5039419;28;20029;-71
2023/05/27 07:41:52;;;;;;;24.30;6.60;;;;;;;17.66;58.93;102847.25;5035808;28;20045;-71
2023/05/27 07:44:18;;;;;;;22.33;5.80;;;;;;;17.78;60.28;102840.13;5041275;28;20435;-72
2023/05/27 07:46:44;;;;;;;16.80;6.13;;;;;;;18.15;58.26;102835.19;5036186;28;20033;-71
2023/05/27 07:49:10;;;;;;;23.30;6.23;;;;;;;18.34;57.59;102822.59;5038317;28;20033;-72
2023/05/27 07:51:36;;;;;;;22.77;7.37;;;;;;;18.40;57.64;102835.69;5040415;28;20393;-72
2023/05/27 07:54:01;;;;;;;19.83;6.43;;;;;;;17.06;61.15;102832.75;5041015;28;20021;-71
2023/05/27 07:56:27;;;;;;;17.40;5.33;;;;;;;17.47;61.30;102831.22;5038195;28;20095;-71
2023/05/27 07:58:52;;;;;;;22.47;5.83;;;;;;;17.40;61.60;102819.19;5038323;28;20569;-72
2023/05/27 08:01:17;;;;;;;24.53;5.77;;;;;;;18.04;58.74;102816.31;5036246;28;20025;-72
2023/05/27 08:03:43;;;;;;;41.37;9.00;;;;;;;17.87;58.94;102819.56;5036935;28;20029;-72
2023/05/27 08:06:08;;;;;;;19.77;7.07;;;;;;;18.03;58.82;102814.59;5037666;28;20128;-73
2023/05/27 08:08:34;;;;;;;24.93;6.43;;;;;;;17.45;59.26;102819.47;5042813;28;20028;-72
2023/05/27 08:10:59;;;;;;;27.13;7.47;;;;;;;17.34;60.53;102817.19;5025887;28;20061;-73
2023/05/27 08:13:25;;;;;;;28.37;7.00;;;;;;;17.24;60.24;102817.44;5038889;28;20138;-73
2023/05/27 08:15:50;;;;;;;24.50;6.40;;;;;;;16.84;61.97;102814.31;5039787;28;20067;-73
2023/05/27 08:18:16;;;;;;;29.80;6.77;;;;;;;16.78;63.07;102801.25;5046117;28;20029;-73
2023/05/27 08:20:41;;;;;;;30.17;7.93;;;;;;;17.42;62.37;102809.66;5042149;28;20028;-73
2023/05/27 08:23:07;;;;;;;22.27;6.43;;;;;;;17.07;62.17;102799.31;5036945;28;20029;-73
2023/05/27 08:25:32;;;;;;;23.67;6.10;;;;;;;16.83;62.87;102798.75;5043517;28;20051;-74
2023/05/27 08:28:01;;;;;;;28.13;6.33;;;;;;;16.81;61.21;102798.09;5036479;28;20026;-73
2023/05/27 08:30:30;;;;;;;17.33;5.45;;;;;;;17.58;62.09;102781.69;5037800;28;20134;-73
2023/05/27 08:32:56;;;;;;;32.13;6.93;;;;;;;17.35;61.54;102786.47;5043398;28;20389;-72
2023/05/27 08:35:22;;;;;;;28.50;6.75;;;;;;;17.08;62.52;102767.81;5034263;28;20056;-73
2023/05/27 08:37:47;;;;;;;21.30;5.60;;;;;;;17.43;61.30;102782.78;5033781;28;20025;-72
2023/05/27 08:40:17;;;;;;;22.35;6.70;;;;;;;17.69;61.08;102777.53;5038782;28;20076;-72
2023/05/27 08:42:44;;;;;;;29.88;6.88;;;;;;;17.69;60.32;102778.41;5037136;28;20045;-72
2023/05/27 08:45:10;;;;;;;24.02;7.00;;;;;;;17.29;62.21;102775.34;5036898;28;20066;-73
2023/05/27 08:47:38;;;;;;;24.98;7.10;;;;;;;17.69;60.84;102767.31;5034208;28;20622;-73
2023/05/27 08:50:04;;;;;;;20.63;5.75;;;;;;;17.91;60.51;102768.16;5039569;28;20088;-72
2023/05/27 08:52:30;;;;;;;23.58;6.53;;;;;;;17.89;60.65;102762.84;5042079;28;20528;-73
2023/05/27 08:54:59;;;;;;;25.75;6.55;;;;;;;18.17;59.90;102744.31;5035013;28;20035;-73
2023/05/27 08:57:31;;;;;;;25.52;6.03;;;;;;;18.13;60.21;102744.91;5037198;28;20029;-72
2023/05/27 08:59:57;;;;;;;33.65;7.60;;;;;;;18.42;59.66;102741.97;5034446;28;20025;-72
2023/05/27 09:02:24;;;;;;;28.25;6.53;;;;;;;18.31;59.19;102742.50;5038917;28;20400;-74
2023/05/27 09:04:49;;;;;;;24.00;6.47;;;;;;;18.46;58.71;102751.63;5035146;28;20102;-72
2023/05/27 09:07:19;;;;;;;25.37;7.10;;;;;;;18.12;59.28;102740.41;5039508;28;20491;-72
2023/05/27 09:09:55;;;;;;;23.65;7.10;;;;;;;18.44;59.71;102746.28;5035816;28;20757;-72
2023/05/27 09:12:24;;;;;;;21.42;7.30;;;;;;;18.38;57.97;102749.84;5027104;28;20033;-73
2023/05/27 09:14:50;;;;;;;27.55;6.57;;;;;;;18.71;58.96;102744.50;5033707;28;20025;-71
2023/05/27 09:17:16;;;;;;;20.13;6.20;;;;;;;18.39;59.05;102745.16;5034230;28;20030;-72
2023/05/27 09:19:41;;;;;;;23.47;6.77;;;;;;;18.48;58.67;102741.16;5039080;28;20036;-72
2023/05/27 09:22:09;;;;;;;33.20;8.80;;;;;;;19.06;58.17;102732.31;5039770;28;20032;-71
2023/05/27 09:24:34;;;;;;;23.90;7.28;;;;;;;19.09;57.15;102729.13;5038640;28;20534;-73
2023/05/27 09:27:01;;;;;;;28.20;6.73;;;;;;;19.13;57.47;102741.53;5034656;28;20063;-72
2023/05/27 09:29:26;;;;;;;;;;;;;;;19.15;57.66;102731.09;5049447;28;20686;-73
2023/05/27 09:31:55;;;;;;;24.65;6.85;;;;;;;19.46;56.52;102720.31;5036952;28;19920;-73
2023/05/27 09:34:21;;;;;;;22.73;6.80;;;;;;;19.53;55.81;102718.41;5050192;28;20021;-73
2023/05/27 09:36:48;;;;;;;34.37;6.77;;;;;;;18.99;56.47;102728.66;5039724;28;20048;-73
2023/05/27 09:39:15;;;;;;;30.23;7.10;;;;;;;18.80;57.76;102719.19;5041534;28;20110;-73
2023/05/27 09:41:41;;;;;;;27.25;7.20;;;;;;;18.64;57.55;102718.63;5041648;28;20056;-72
2023/05/27 09:44:08;;;;;;;27.55;7.55;;;;;;;19.35;57.25;102713.44;5037435;28;20531;-72
2023/05/27 09:46:34;;;;;;;22.98;6.70;;;;;;;19.31;56.16;102703.81;5046107;28;20365;-71
2023/05/27 09:49:02;;;;;;;33.03;6.88;;;;;;;19.53;56.13;102716.47;5038724;28;20086;-71
2023/05/27 09:51:27;;;;;;;27.63;6.35;;;;;;;19.63;55.71;102707.75;5041130;28;20542;-71
2023/05/27 09:53:57;;;;;;;28.20;7.10;;;;;;;20.10;55.35;102700.09;5022745;28;20029;-71
2023/05/27 09:56:27;;;;;;;24.65;6.72;;;;;;;20.07;55.23;102710.81;5035200;28;20021;-72
2023/05/27 09:58:56;;;;;;;26.10;6.95;;;;;;;19.72;56.22;102703.69;5038574;28;20095;-71
2023/05/27 10:01:28;;;;;;;26.92;6.82;;;;;;;20.07;55.67;102708.03;5036373;28;20058;-72
2023/05/27 10:03:55;;;;;;;20.92;6.45;;;;;;;20.22;54.59;102697.53;5036062;28;20488;-72
2023/05/27 10:06:24;;;;;;;21.25;7.28;;;;;;;20.56;54.20;102700.91;5040317;28;20462;-71
2023/05/27 10:08:49;;;;;;;23.38;7.10;;;;;;;20.13;53.61;102702.47;5044030;28;20477;-72
2023/05/27 10:11:15;;;;;;;19.43;6.73;;;;;;;20.23;53.04;102697.28;5030839;28;20036;-72
2023/05/27 10:13:41;;;;;;;25.20;7.93;;;;;;;20.62;52.18;102700.03;5035693;28;20029;-70
2023/05/27 10:16:06;;;;;;;22.65;7.25;;;;;;;20.09;51.97;102697.53;5036551;28;20731;-70
2023/05/27 10:18:33;;;;;;;20.13;6.13;;;;;;;20.48;51.53;102691.94;5041939;28;20033;-69
2023/05/27 10:21:02;;;;;;;25.10;7.13;;;;;;;20.42;51.46;102687.19;5057176;28;20049;-69
2023/05/27 10:23:30;;;;;;;26.40;6.57;;;;;;;20.58;51.32;102679.25;5040593;28;20385;-69
2023/05/27 10:26:07;;;;;;;22.42;6.75;;;;;;;20.82;51.36;102686.03;5045714;28;20378;-70
2023/05/27 10:28:35;;;;;;;31.45;7.50;;;;;;;20.74;50.01;102677.91;5057226;28;20025;-71
2023/05/27 10:31:08;;;;;;;24.80;7.72;;;;;;;20.55;51.78;102684.41;5040311;28;20378;-69
2023/05/27 10:33:39;;;;;;;35.78;8.43;;;;;;;20.64;50.97;102675.59;5043568;28;20029;-70
2023/05/27 10:36:12;;;;;;;22.20;6.80;;;;;;;20.96;51.02;102660.72;5041564;28;20025;-70
2023/05/27 10:38:39;;;;;;;20.80;6.80;;;;;;;21.28;49.48;102662.47;5043207;28;20673;-70
2023/05/27 10:41:06;;;;;;;22.35;6.88;;;;;;;20.98;49.71;102655.75;5040643;28;20053;-69
2023/05/27 10:43:33;;;;;;;24.85;7.38;;;;;;;20.82;48.82;102663.75;5066232;28;20425;-72
2023/05/27 10:46:12;;;;;;;22.38;7.05;;;;;;;20.95;49.58;102652.56;5040056;28;20116;-73
2023/05/27 10:48:41;;;;;;;21.80;6.22;;;;;;;21.38;46.87;102651.69;5040512;28;20238;-71
2023/05/27 10:51:07;;;;;;;22.42;6.65;;;;;;;21.89;47.40;102645.97;5042017;28;20504;-71
2023/05/27 10:53:35;;;;;;;23.08;6.45;;;;;;;21.72;45.44;102644.84;5041097;28;20448;-71
2023/05/27 10:56:01;;;;;;;20.25;6.32;;;;;;;21.91;45.82;102633.50;5033328;28;20037;-70
2023/05/27 10:58:27;;;;;;;26.57;5.93;;;;;;;21.47;47.06;102627.16;5047418;28;20031;-70
2023/05/27 11:00:54;;;;;;;25.52;6.70;;;;;;;21.56;46.02;102631.41;5034605;28;20037;-71
2023/05/27 11:03:25;;;;;;;20.40;6.32;;;;;;;22.21;45.84;102628.06;5036691;28;20033;-71
2023/05/27 11:06:04;;;;;;;22.15;7.28;;;;;;;22.11;44.80;102623.00;5039075;28;20028;-71
2023/05/27 11:08:31;;;;;;;22.23;6.38;;;;;;;22.24;44.90;102627.59;5040116;28;20111;-71
2023/05/27 11:11:08;;;;;;;17.35;6.80;;;;;;;22.49;43.91;102620.91;5041708;28;20446;-71
2023/05/27 11:13:42;;;;;;;21.95;6.53;;;;;;;22.38;44.22;102609.59;5041465;28;20038;-71
2023/05/27 11:16:08;;;;;;;22.08;6.80;;;;;;;22.91;44.09;102605.09;5040745;28;20485;-70
2023/05/27 11:18:34;;;;;;;20.70;6.13;;;;;;;22.70;44.43;102600.88;5038296;28;20099;-71
2023/05/27 11:21:02;;;;;;;22.42;6.55;;;;;;;22.51;44.03;102601.94;5040645;28;20055;-71
2023/05/27 11:23:35;;;;;;;19.25;6.18;;;;;;;22.37;44.26;102594.81;5040029;28;20033;-72